sensor_id;sensor_type;location;lat;lon;timestamp;P1;durP1;ratioP1;P2;durP2;ratioP2
934;SDS011;454;53.254;10.400;2024-03-22T05:00:17;21.30;;;12.75;;
934;SDS011;454;53.254;10.400;2024-03-22T05:02:44;15.48;;;10.57;;
934;SDS011;454;53.254;10.400;2024-03-22T05:05:10;20.90;;;11.40;;
934;SDS011;454;53.254;10.400;2024-03-22T05:07:37;22.38;;;11.43;;
934;SDS011;454;53.254;10.400;2024-03-22T05:10:03;18.60;;;11.13;;
934;SDS011;454;53.254;10.400;2024-03-22T05:12:30;20.83;;;13.48;;
934;SDS011;454;53.254;10.400;2024-03-22T05:14:56;23.33;;;13.83;;
934;SDS011;454;53.254;10.400;2024-03-22T05:17:24;17.45;;;10.75;;
934;SDS011;454;53.254;10.400;2024-03-22T05:19:50;26.23;;;12.82;;
934;SDS011;454;53.254;10.400;2024-03-22T05:22:17;19.92;;;12.35;;
934;SDS011;454;53.254;10.400;2024-03-22T05:24:45;24.85;;;12.55;;
934;SDS011;454;53.254;10.400;2024-03-22T05:27:11;21.17;;;13.73;;
934;SDS011;454;53.254;10.400;2024-03-22T05:29:37;20.63;;;12.53;;
934;SDS011;454;53.254;10.400;2024-03-22T05:32:04;23.40;;;11.90;;
934;SDS011;454;53.254;10.400;2024-03-22T05:34:32;22.38;;;12.10;;
934;SDS011;454;53.254;10.400;2024-03-22T05:36:58;23.02;;;12.07;;
934;SDS011;454;53.254;10.400;2024-03-22T05:39:24;21.70;;;13.37;;
934;SDS011;454;53.254;10.400;2024-03-22T05:41:51;18.50;;;13.13;;
934;SDS011;454;53.254;10.400;2024-03-22T05:44:17;21.30;;;12.40;;
934;SDS011;454;53.254;10.400;2024-03-22T05:46:44;21.20;;;13.15;;
934;SDS011;454;53.254;10.400;2024-03-22T05:49:10;20.07;;;11.47;;
934;SDS011;454;53.254;10.400;2024-03-22T05:51:38;26.77;;;14.10;;
934;SDS011;454;53.254;10.400;2024-03-22T05:54:03;24.83;;;15.07;;
934;SDS011;454;53.254;10.400;2024-03-22T05:56:31;24.55;;;13.25;;
934;SDS011;454;53.254;10.400;2024-03-22T05:58:57;22.53;;;14.33;;
934;SDS011;454;53.254;10.400;2024-03-22T06:01:24;26.50;;;14.98;;
934;SDS011;454;53.254;10.400;2024-03-22T06:03:50;26.90;;;14.97;;
934;SDS011;454;53.254;10.400;2024-03-22T06:06:17;27.10;;;14.98;;
934;SDS011;454;53.254;10.400;2024-03-22T06:08:44;24.77;;;13.30;;
934;SDS011;454;53.254;10.400;2024-03-22T06:11:10;27.35;;;13.52;;
934;SDS011;454;53.254;10.400;2024-03-22T06:13:36;26.23;;;13.30;;
934;SDS011;454;53.254;10.400;2024-03-22T06:16:03;23.42;;;12.40;;
934;SDS011;454;53.254;10.400;2024-03-22T06:18:30;28.23;;;13.52;;
934;SDS011;454;53.254;10.400;2024-03-22T06:20:56;28.20;;;14.20;;
934;SDS011;454;53.254;10.400;2024-03-22T06:23:22;27.70;;;16.03;;
934;SDS011;454;53.254;10.400;2024-03-22T06:25:53;32.83;;;15.30;;
934;SDS011;454;53.254;10.400;2024-03-22T06:28:20;29.25;;;14.60;;
934;SDS011;454;53.254;10.400;2024-03-22T06:30:46;31.75;;;14.95;;
934;SDS011;454;53.254;10.400;2024-03-22T06:33:12;30.30;;;14.83;;
934;SDS011;454;53.254;10.400;2024-03-22T06:35:40;24.90;;;16.85;;
934;SDS011;454;53.254;10.400;2024-03-22T06:38:06;33.20;;;18.40;;
934;SDS011;454;53.254;10.400;2024-03-22T06:40:33;32.50;;;16.17;;
934;SDS011;454;53.254;10.400;2024-03-22T06:43:01;38.83;;;17.70;;
934;SDS011;454;53.254;10.400;2024-03-22T06:45:27;37.17;;;16.90;;
934;SDS011;454;53.254;10.400;2024-03-22T06:47:53;34.97;;;16.30;;
934;SDS011;454;53.254;10.400;2024-03-22T06:50:20;28.50;;;16.05;;
934;SDS011;454;53.254;10.400;2024-03-22T06:52:49;30.50;;;14.90;;
934;SDS011;454;53.254;10.400;2024-03-22T06:55:16;31.27;;;17.77;;
934;SDS011;454;53.254;10.400;2024-03-22T06:57:42;27.47;;;15.87;;
934;SDS011;454;53.254;10.400;2024-03-22T07:00:12;29.13;;;14.25;;
934;SDS011;454;53.254;10.400;2024-03-22T07:02:38;27.88;;;14.70;;
934;SDS011;454;53.254;10.400;2024-03-22T07:05:05;34.10;;;17.88;;
934;SDS011;454;53.254;10.400;2024-03-22T07:07:32;36.67;;;18.15;;
934;SDS011;454;53.254;10.400;2024-03-22T07:09:58;26.17;;;15.02;;
934;SDS011;454;53.254;10.400;2024-03-22T07:12:24;33.83;;;18.47;;
934;SDS011;454;53.254;10.400;2024-03-22T07:14:51;29.35;;;15.45;;
934;SDS011;454;53.254;10.400;2024-03-22T07:17:18;33.17;;;16.40;;
934;SDS011;454;53.254;10.400;2024-03-22T07:19:48;49.08;;;17.67;;
934;SDS011;454;53.254;10.400;2024-03-22T07:22:14;31.00;;;17.43;;
934;SDS011;454;53.254;10.400;2024-03-22T07:24:41;114.33;;;30.90;;
934;SDS011;454;53.254;10.400;2024-03-22T07:27:07;47.43;;;19.40;;
934;SDS011;454;53.254;10.400;2024-03-22T07:29:33;34.87;;;17.00;;
934;SDS011;454;53.254;10.400;2024-03-22T07:31:59;34.67;;;18.07;;
934;SDS011;454;53.254;10.400;2024-03-22T07:34:27;41.23;;;15.97;;
934;SDS011;454;53.254;10.400;2024-03-22T07:36:53;31.30;;;17.73;;
934;SDS011;454;53.254;10.400;2024-03-22T07:39:20;31.27;;;15.80;;
934;SDS011;454;53.254;10.400;2024-03-22T07:41:45;27.90;;;16.53;;
934;SDS011;454;53.254;10.400;2024-03-22T07:44:12;33.80;;;16.80;;
934;SDS011;454;53.254;10.400;2024-03-22T07:46:38;34.27;;;17.10;;
934;SDS011;454;53.254;10.400;2024-03-22T07:49:05;39.00;;;16.47;;
934;SDS011;454;53.254;10.400;2024-03-22T07:51:32;37.00;;;20.80;;
934;SDS011;454;53.254;10.400;2024-03-22T07:53:58;28.93;;;18.00;;
934;SDS011;454;53.254;10.400;2024-03-22T07:56:24;45.13;;;19.27;;
934;SDS011;454;53.254;10.400;2024-03-22T07:58:51;39.80;;;18.70;;
934;SDS011;454;53.254;10.400;2024-03-22T08:01:16;33.20;;;16.83;;
934;SDS011;454;53.254;10.400;2024-03-22T08:03:43;36.73;;;19.07;;
934;SDS011;454;53.254;10.400;2024-03-22T08:06:09;39.10;;;19.63;;
934;SDS011;454;53.254;10.400;2024-03-22T08:08:37;44.93;;;21.47;;
934;SDS011;454;53.254;10.400;2024-03-22T08:11:03;32.57;;;18.67;;
934;SDS011;454;53.254;10.400;2024-03-22T08:13:29;33.73;;;16.73;;
934;SDS011;454;53.254;10.400;2024-03-22T08:15:55;35.20;;;17.63;;
934;SDS011;454;53.254;10.400;2024-03-22T08:18:22;42.60;;;19.30;;
934;SDS011;454;53.254;10.400;2024-03-22T08:20:48;35.70;;;19.07;;
934;SDS011;454;53.254;10.400;2024-03-22T08:23:14;37.80;;;19.93;;
934;SDS011;454;53.254;10.400;2024-03-22T08:25:44;41.28;;;17.20;;
934;SDS011;454;53.254;10.400;2024-03-22T08:28:10;41.77;;;20.67;;
934;SDS011;454;53.254;10.400;2024-03-22T08:30:38;38.72;;;18.90;;
934;SDS011;454;53.254;10.400;2024-03-22T08:33:05;42.20;;;18.53;;
934;SDS011;454;53.254;10.400;2024-03-22T08:35:31;38.03;;;18.33;;
934;SDS011;454;53.254;10.400;2024-03-22T08:37:58;38.10;;;19.57;;
934;SDS011;454;53.254;10.400;2024-03-22T08:40:23;34.03;;;18.27;;
934;SDS011;454;53.254;10.400;2024-03-22T08:42:51;45.57;;;19.87;;
934;SDS011;454;53.254;10.400;2024-03-22T08:45:17;40.10;;;18.20;;
934;SDS011;454;53.254;10.400;2024-03-22T08:47:44;33.37;;;17.17;;
934;SDS011;454;53.254;10.400;2024-03-22T08:50:11;41.72;;;18.77;;
934;SDS011;454;53.254;10.400;2024-03-22T08:52:37;33.67;;;17.77;;
934;SDS011;454;53.254;10.400;2024-03-22T08:55:03;36.07;;;16.70;;
934;SDS011;454;53.254;10.400;2024-03-22T08:57:32;40.55;;;18.40;;
934;SDS011;454;53.254;10.400;2024-03-22T08:59:59;40.20;;;18.97;;
934;SDS011;454;53.254;10.400;2024-03-22T09:02:26;35.88;;;17.90;;
934;SDS011;454;53.254;10.400;2024-03-22T09:04:52;31.33;;;18.30;;
934;SDS011;454;53.254;10.400;2024-03-22T09:07:19;39.05;;;19.15;;
934;SDS011;454;53.254;10.400;2024-03-22T09:09:45;41.47;;;18.30;;
934;SDS011;454;53.254;10.400;2024-03-22T09:12:12;39.40;;;17.63;;
934;SDS011;454;53.254;10.400;2024-03-22T09:14:37;26.83;;;15.50;;
934;SDS011;454;53.254;10.400;2024-03-22T09:17:06;39.27;;;18.50;;
934;SDS011;454;53.254;10.400;2024-03-22T09:19:32;38.23;;;18.33;;
934;SDS011;454;53.254;10.400;2024-03-22T09:21:59;34.05;;;18.67;;
934;SDS011;454;53.254;10.400;2024-03-22T09:24:24;38.70;;;19.60;;
934;SDS011;454;53.254;10.400;2024-03-22T09:26:51;33.13;;;17.98;;
934;SDS011;454;53.254;10.400;2024-03-22T09:29:18;44.50;;;21.73;;
934;SDS011;454;53.254;10.400;2024-03-22T09:31:44;40.30;;;17.67;;
934;SDS011;454;53.254;10.400;2024-03-22T09:34:12;38.03;;;19.05;;
934;SDS011;454;53.254;10.400;2024-03-22T09:36:41;41.90;;;19.30;;
934;SDS011;454;53.254;10.400;2024-03-22T09:39:07;42.95;;;20.23;;
934;SDS011;454;53.254;10.400;2024-03-22T09:41:34;38.80;;;19.38;;
934;SDS011;454;53.254;10.400;2024-03-22T09:44:06;35.42;;;16.55;;
934;SDS011;454;53.254;10.400;2024-03-22T09:46:33;38.83;;;17.88;;
934;SDS011;454;53.254;10.400;2024-03-22T09:49:01;35.37;;;17.10;;
934;SDS011;454;53.254;10.400;2024-03-22T09:51:28;33.35;;;15.63;;
934;SDS011;454;53.254;10.400;2024-03-22T09:53:56;24.10;;;15.85;;
934;SDS011;454;53.254;10.400;2024-03-22T09:56:23;32.88;;;17.88;;
934;SDS011;454;53.254;10.400;2024-03-22T09:58:52;44.97;;;17.58;;
934;SDS011;454;53.254;10.400;2024-03-22T10:01:18;37.43;;;16.00;;
934;SDS011;454;53.254;10.400;2024-03-22T10:03:44;43.23;;;18.67;;
934;SDS011;454;53.254;10.400;2024-03-22T10:06:10;30.20;;;16.65;;
934;SDS011;454;53.254;10.400;2024-03-22T10:08:39;33.47;;;16.70;;
934;SDS011;454;53.254;10.400;2024-03-22T10:11:05;34.95;;;17.27;;
934;SDS011;454;53.254;10.400;2024-03-22T10:13:32;34.40;;;15.90;;
934;SDS011;454;53.254;10.400;2024-03-22T10:15:57;32.57;;;15.43;;
934;SDS011;454;53.254;10.400;2024-03-22T10:18:25;33.78;;;16.88;;
934;SDS011;454;53.254;10.400;2024-03-22T10:20:58;34.10;;;17.33;;
934;SDS011;454;53.254;10.400;2024-03-22T10:23:26;35.47;;;15.45;;
934;SDS011;454;53.254;10.400;2024-03-22T10:25:53;28.00;;;15.90;;
934;SDS011;454;53.254;10.400;2024-03-22T10:28:20;36.80;;;16.87;;
934;SDS011;454;53.254;10.400;2024-03-22T10:30:46;28.63;;;14.50;;
934;SDS011;454;53.254;10.400;2024-03-22T10:33:14;26.67;;;14.10;;
934;SDS011;454;53.254;10.400;2024-03-22T10:35:40;32.22;;;15.93;;
934;SDS011;454;53.254;10.400;2024-03-22T10:38:09;36.77;;;15.90;;
934;SDS011;454;53.254;10.400;2024-03-22T10:40:37;43.55;;;16.55;;
934;SDS011;454;53.254;10.400;2024-03-22T10:43:06;30.70;;;16.77;;
934;SDS011;454;53.254;10.400;2024-03-22T10:45:32;32.10;;;16.50;;
934;SDS011;454;53.254;10.400;2024-03-22T10:48:00;35.73;;;16.03;;
934;SDS011;454;53.254;10.400;2024-03-22T10:50:33;30.42;;;15.88;;
934;SDS011;454;53.254;10.400;2024-03-22T10:53:01;31.15;;;16.58;;
934;SDS011;454;53.254;10.400;2024-03-22T10:55:32;28.98;;;18.73;;
934;SDS011;454;53.254;10.400;2024-03-22T10:58:00;31.15;;;16.20;;
934;SDS011;454;53.254;10.400;2024-03-22T11:00:28;37.00;;;15.40;;
934;SDS011;454;53.254;10.400;2024-03-22T11:02:56;40.92;;;18.45;;
934;SDS011;454;53.254;10.400;2024-03-22T11:05:22;29.97;;;14.53;;
934;SDS011;454;53.254;10.400;2024-03-22T11:07:58;31.67;;;14.05;;
934;SDS011;454;53.254;10.400;2024-03-22T11:10:25;34.28;;;17.13;;
934;SDS011;454;53.254;10.400;2024-03-22T11:12:55;36.88;;;17.40;;
934;SDS011;454;53.254;10.400;2024-03-22T11:15:21;29.90;;;15.80;;
934;SDS011;454;53.254;10.400;2024-03-22T11:17:50;22.83;;;11.50;;
934;SDS011;454;53.254;10.400;2024-03-22T11:20:16;23.27;;;13.80;;
934;SDS011;454;53.254;10.400;2024-03-22T11:22:43;27.83;;;13.50;;
934;SDS011;454;53.254;10.400;2024-03-22T11:25:09;22.53;;;14.03;;
934;SDS011;454;53.254;10.400;2024-03-22T11:27:36;32.97;;;15.97;;
934;SDS011;454;53.254;10.400;2024-03-22T11:30:02;33.20;;;15.87;;
934;SDS011;454;53.254;10.400;2024-03-22T11:32:29;24.77;;;14.27;;
934;SDS011;454;53.254;10.400;2024-03-22T11:34:57;25.30;;;15.47;;
934;SDS011;454;53.254;10.400;2024-03-22T11:37:24;24.60;;;14.93;;
934;SDS011;454;53.254;10.400;2024-03-22T11:39:49;23.60;;;13.23;;
934;SDS011;454;53.254;10.400;2024-03-22T11:42:16;24.10;;;12.77;;
934;SDS011;454;53.254;10.400;2024-03-22T11:44:42;23.03;;;13.40;;
934;SDS011;454;53.254;10.400;2024-03-22T11:47:10;23.00;;;14.70;;
934;SDS011;454;53.254;10.400;2024-03-22T11:49:35;20.70;;;12.43;;
934;SDS011;454;53.254;10.400;2024-03-22T11:52:04;27.57;;;13.20;;
934;SDS011;454;53.254;10.400;2024-03-22T11:54:32;21.53;;;11.40;;
934;SDS011;454;53.254;10.400;2024-03-22T11:56:59;24.27;;;12.67;;
934;SDS011;454;53.254;10.400;2024-03-22T11:59:25;20.47;;;12.30;;
934;SDS011;454;53.254;10.400;2024-03-22T12:01:52;21.73;;;11.07;;
934;SDS011;454;53.254;10.400;2024-03-22T12:04:19;15.37;;;9.63;;
934;SDS011;454;53.254;10.400;2024-03-22T12:06:46;20.13;;;9.97;;
934;SDS011;454;53.254;10.400;2024-03-22T12:09:13;17.20;;;10.40;;
934;SDS011;454;53.254;10.400;2024-03-22T12:11:40;18.47;;;11.07;;
934;SDS011;454;53.254;10.400;2024-03-22T12:14:06;15.97;;;8.17;;
934;SDS011;454;53.254;10.400;2024-03-22T12:16:32;15.30;;;9.20;;
934;SDS011;454;53.254;10.400;2024-03-22T12:18:58;30.43;;;11.13;;
934;SDS011;454;53.254;10.400;2024-03-22T12:21:25;20.23;;;10.60;;
934;SDS011;454;53.254;10.400;2024-03-22T12:23:51;20.07;;;8.20;;
934;SDS011;454;53.254;10.400;2024-03-22T12:26:19;13.40;;;7.60;;
934;SDS011;454;53.254;10.400;2024-03-22T12:28:45;10.57;;;7.13;;
934;SDS011;454;53.254;10.400;2024-03-22T12:31:11;11.40;;;8.10;;
934;SDS011;454;53.254;10.400;2024-03-22T12:33:37;17.13;;;7.03;;
934;SDS011;454;53.254;10.400;2024-03-22T12:36:04;11.83;;;8.40;;
934;SDS011;454;53.254;10.400;2024-03-22T12:38:30;14.10;;;8.40;;
934;SDS011;454;53.254;10.400;2024-03-22T12:40:57;11.00;;;6.30;;
934;SDS011;454;53.254;10.400;2024-03-22T12:43:24;12.50;;;6.63;;
934;SDS011;454;53.254;10.400;2024-03-22T12:45:51;11.90;;;6.53;;
934;SDS011;454;53.254;10.400;2024-03-22T12:48:16;8.57;;;5.47;;
934;SDS011;454;53.254;10.400;2024-03-22T12:50:44;9.10;;;6.47;;
934;SDS011;454;53.254;10.400;2024-03-22T12:53:10;6.63;;;5.17;;
934;SDS011;454;53.254;10.400;2024-03-22T12:55:36;9.60;;;6.20;;
934;SDS011;454;53.254;10.400;2024-03-22T12:58:02;10.60;;;5.13;;
934;SDS011;454;53.254;10.400;2024-03-22T13:00:31;9.83;;;4.87;;
934;SDS011;454;53.254;10.400;2024-03-22T13:02:58;10.40;;;6.20;;
934;SDS011;454;53.254;10.400;2024-03-22T13:05:25;8.60;;;5.87;;
934;SDS011;454;53.254;10.400;2024-03-22T13:07:51;6.37;;;4.60;;
934;SDS011;454;53.254;10.400;2024-03-22T13:10:18;6.80;;;4.60;;
934;SDS011;454;53.254;10.400;2024-03-22T13:12:44;7.23;;;4.70;;
934;SDS011;454;53.254;10.400;2024-03-22T13:15:11;10.13;;;4.10;;
934;SDS011;454;53.254;10.400;2024-03-22T13:17:38;5.67;;;4.17;;
934;SDS011;454;53.254;10.400;2024-03-22T13:20:05;6.53;;;4.30;;
934;SDS011;454;53.254;10.400;2024-03-22T13:22:35;5.83;;;4.30;;
934;SDS011;454;53.254;10.400;2024-03-22T13:25:02;5.90;;;3.90;;
934;SDS011;454;53.254;10.400;2024-03-22T13:27:31;5.20;;;4.67;;
934;SDS011;454;53.254;10.400;2024-03-22T13:29:59;5.53;;;4.40;;
934;SDS011;454;53.254;10.400;2024-03-22T13:32:24;4.63;;;4.23;;
934;SDS011;454;53.254;10.400;2024-03-22T13:34:52;10.90;;;5.33;;
934;SDS011;454;53.254;10.400;2024-03-22T13:37:18;6.13;;;5.47;;
934;SDS011;454;53.254;10.400;2024-03-22T13:39:47;5.13;;;4.13;;
934;SDS011;454;53.254;10.400;2024-03-22T13:42:14;7.57;;;4.60;;
934;SDS011;454;53.254;10.400;2024-03-22T13:44:41;5.20;;;4.67;;
934;SDS011;454;53.254;10.400;2024-03-22T13:47:07;16.00;;;4.90;;
934;SDS011;454;53.254;10.400;2024-03-22T13:49:34;6.93;;;4.40;;
934;SDS011;454;53.254;10.400;2024-03-22T13:52:02;8.20;;;5.00;;
934;SDS011;454;53.254;10.400;2024-03-22T13:54:29;6.17;;;5.40;;
934;SDS011;454;53.254;10.400;2024-03-22T13:56:55;5.97;;;4.60;;
934;SDS011;454;53.254;10.400;2024-03-22T13:59:22;7.97;;;4.67;;
934;SDS011;454;53.254;10.400;2024-03-22T14:01:48;8.73;;;4.60;;
934;SDS011;454;53.254;10.400;2024-03-22T14:04:14;6.90;;;5.07;;
934;SDS011;454;53.254;10.400;2024-03-22T14:06:40;7.53;;;4.27;;
934;SDS011;454;53.254;10.400;2024-03-22T14:09:09;7.27;;;4.10;;
934;SDS011;454;53.254;10.400;2024-03-22T14:11:37;4.77;;;3.73;;
934;SDS011;454;53.254;10.400;2024-03-22T14:14:03;5.60;;;4.30;;
934;SDS011;454;53.254;10.400;2024-03-22T14:16:29;5.40;;;4.17;;
934;SDS011;454;53.254;10.400;2024-03-22T14:18:56;6.10;;;3.87;;
934;SDS011;454;53.254;10.400;2024-03-22T14:21:21;4.67;;;3.60;;
934;SDS011;454;53.254;10.400;2024-03-22T14:23:48;4.60;;;4.20;;
934;SDS011;454;53.254;10.400;2024-03-22T14:26:16;8.50;;;4.50;;
934;SDS011;454;53.254;10.400;2024-03-22T14:28:43;8.00;;;4.27;;
934;SDS011;454;53.254;10.400;2024-03-22T14:31:09;6.00;;;5.00;;
934;SDS011;454;53.254;10.400;2024-03-22T14:33:37;5.60;;;3.57;;
934;SDS011;454;53.254;10.400;2024-03-22T14:36:04;6.57;;;4.67;;
934;SDS011;454;53.254;10.400;2024-03-22T14:38:32;3.73;;;3.33;;
934;SDS011;454;53.254;10.400;2024-03-22T14:40:58;8.00;;;4.43;;
934;SDS011;454;53.254;10.400;2024-03-22T14:43:27;5.80;;;4.27;;
934;SDS011;454;53.254;10.400;2024-03-22T14:45:52;5.90;;;4.47;;
934;SDS011;454;53.254;10.400;2024-03-22T14:48:20;4.50;;;4.17;;
934;SDS011;454;53.254;10.400;2024-03-22T14:50:46;6.30;;;4.70;;
934;SDS011;454;53.254;10.400;2024-03-22T14:53:13;4.90;;;4.43;;
934;SDS011;454;53.254;10.400;2024-03-22T14:55:39;5.30;;;3.97;;
934;SDS011;454;53.254;10.400;2024-03-22T14:58:06;5.10;;;4.20;;
934;SDS011;454;53.254;10.400;2024-03-22T15:00:33;6.93;;;4.23;;
934;SDS011;454;53.254;10.400;2024-03-22T15:03:00;4.00;;;3.60;;
934;SDS011;454;53.254;10.400;2024-03-22T15:05:25;5.80;;;4.07;;
934;SDS011;454;53.254;10.400;2024-03-22T15:07:52;7.23;;;4.63;;
934;SDS011;454;53.254;10.400;2024-03-22T15:10:18;3.80;;;3.43;;
934;SDS011;454;53.254;10.400;2024-03-22T15:12:45;5.43;;;3.97;;
934;SDS011;454;53.254;10.400;2024-03-22T15:15:11;6.97;;;5.00;;
934;SDS011;454;53.254;10.400;2024-03-22T15:17:39;5.60;;;5.10;;
934;SDS011;454;53.254;10.400;2024-03-22T15:20:06;3.77;;;3.30;;
934;SDS011;454;53.254;10.400;2024-03-22T15:22:34;6.63;;;4.63;;
934;SDS011;454;53.254;10.400;2024-03-22T15:24:59;3.77;;;3.17;;
934;SDS011;454;53.254;10.400;2024-03-22T15:27:26;4.57;;;4.17;;
934;SDS011;454;53.254;10.400;2024-03-22T15:29:53;3.83;;;3.53;;
934;SDS011;454;53.254;10.400;2024-03-22T15:32:19;4.23;;;3.80;;
934;SDS011;454;53.254;10.400;2024-03-22T15:34:49;6.97;;;4.43;;
934;SDS011;454;53.254;10.400;2024-03-22T15:37:15;3.73;;;3.33;;
934;SDS011;454;53.254;10.400;2024-03-22T15:39:41;3.50;;;3.20;;
934;SDS011;454;53.254;10.400;2024-03-22T15:42:08;5.07;;;4.57;;
934;SDS011;454;53.254;10.400;2024-03-22T15:44:33;5.90;;;3.30;;
934;SDS011;454;53.254;10.400;2024-03-22T15:47:00;3.50;;;3.17;;
934;SDS011;454;53.254;10.400;2024-03-22T15:49:27;7.88;;;4.32;;
934;SDS011;454;53.254;10.400;2024-03-22T15:51:55;5.10;;;2.80;;
934;SDS011;454;53.254;10.400;2024-03-22T15:54:21;4.40;;;2.47;;
934;SDS011;454;53.254;10.400;2024-03-22T15:56:48;1.00;;;0.90;;
934;SDS011;454;53.254;10.400;2024-03-22T15:59:13;1.33;;;1.33;;
934;SDS011;454;53.254;10.400;2024-03-22T16:01:40;2.40;;;1.40;;
934;SDS011;454;53.254;10.400;2024-03-22T16:04:06;5.80;;;1.53;;
934;SDS011;454;53.254;10.400;2024-03-22T16:06:32;1.83;;;1.70;;
934;SDS011;454;53.254;10.400;2024-03-22T16:08:59;1.37;;;1.27;;
934;SDS011;454;53.254;10.400;2024-03-22T16:11:26;1.85;;;1.73;;
934;SDS011;454;53.254;10.400;2024-03-22T16:13:52;1.60;;;1.00;;
934;SDS011;454;53.254;10.400;2024-03-22T16:16:19;1.50;;;1.50;;
934;SDS011;454;53.254;10.400;2024-03-22T16:18:44;1.90;;;1.43;;
934;SDS011;454;53.254;10.400;2024-03-22T16:21:11;4.10;;;1.65;;
934;SDS011;454;53.254;10.400;2024-03-22T16:23:37;5.37;;;1.47;;
934;SDS011;454;53.254;10.400;2024-03-22T16:26:05;2.42;;;1.70;;
934;SDS011;454;53.254;10.400;2024-03-22T16:28:31;1.70;;;1.60;;
934;SDS011;454;53.254;10.400;2024-03-22T16:30:57;4.03;;;1.45;;
934;SDS011;454;53.254;10.400;2024-03-22T16:33:23;9.70;;;2.40;;
934;SDS011;454;53.254;10.400;2024-03-22T16:35:50;2.33;;;1.33;;
934;SDS011;454;53.254;10.400;2024-03-22T16:38:16;2.20;;;1.80;;
934;SDS011;454;53.254;10.400;2024-03-22T16:40:42;1.52;;;1.42;;
934;SDS011;454;53.254;10.400;2024-03-22T16:43:09;2.00;;;1.40;;
934;SDS011;454;53.254;10.400;2024-03-22T16:45:36;4.28;;;1.88;;
934;SDS011;454;53.254;10.400;2024-03-22T16:48:02;5.50;;;2.30;;
934;SDS011;454;53.254;10.400;2024-03-22T16:50:29;3.05;;;1.50;;
934;SDS011;454;53.254;10.400;2024-03-22T16:52:55;1.60;;;1.23;;
934;SDS011;454;53.254;10.400;2024-03-22T16:55:22;0.90;;;0.90;;
934;SDS011;454;53.254;10.400;2024-03-22T16:57:50;3.22;;;2.08;;
934;SDS011;454;53.254;10.400;2024-03-22T17:00:19;5.65;;;2.30;;
934;SDS011;454;53.254;10.400;2024-03-22T17:02:45;7.68;;;2.65;;
934;SDS011;454;53.254;10.400;2024-03-22T17:05:12;2.60;;;2.40;;
934;SDS011;454;53.254;10.400;2024-03-22T17:07:37;3.43;;;2.70;;
934;SDS011;454;53.254;10.400;2024-03-22T17:10:04;5.10;;;1.92;;
934;SDS011;454;53.254;10.400;2024-03-22T17:12:31;4.70;;;2.20;;
934;SDS011;454;53.254;10.400;2024-03-22T17:14:57;1.80;;;1.70;;
934;SDS011;454;53.254;10.400;2024-03-22T17:17:24;1.20;;;1.20;;
934;SDS011;454;53.254;10.400;2024-03-22T17:19:51;8.30;;;1.83;;
934;SDS011;454;53.254;10.400;2024-03-22T17:22:17;3.30;;;2.90;;
934;SDS011;454;53.254;10.400;2024-03-22T17:24:44;0.90;;;0.90;;
934;SDS011;454;53.254;10.400;2024-03-22T17:27:10;7.13;;;1.17;;
934;SDS011;454;53.254;10.400;2024-03-22T17:29:37;1.42;;;1.38;;
934;SDS011;454;53.254;10.400;2024-03-22T17:32:04;5.50;;;2.17;;
934;SDS011;454;53.254;10.400;2024-03-22T17:34:32;6.68;;;1.90;;
934;SDS011;454;53.254;10.400;2024-03-22T17:36:59;1.40;;;1.23;;
934;SDS011;454;53.254;10.400;2024-03-22T17:39:26;8.70;;;2.30;;
934;SDS011;454;53.254;10.400;2024-03-22T17:41:52;3.80;;;2.43;;
934;SDS011;454;53.254;10.400;2024-03-22T17:44:18;4.88;;;3.03;;
934;SDS011;454;53.254;10.400;2024-03-22T17:46:45;4.45;;;2.58;;
934;SDS011;454;53.254;10.400;2024-03-22T17:49:11;6.03;;;2.63;;
934;SDS011;454;53.254;10.400;2024-03-22T17:51:39;7.60;;;3.37;;
934;SDS011;454;53.254;10.400;2024-03-22T17:54:05;4.65;;;3.28;;
934;SDS011;454;53.254;10.400;2024-03-22T17:56:32;8.45;;;3.83;;
934;SDS011;454;53.254;10.400;2024-03-22T17:58:58;4.23;;;3.30;;
934;SDS011;454;53.254;10.400;2024-03-22T18:01:24;6.65;;;3.22;;
934;SDS011;454;53.254;10.400;2024-03-22T18:03:50;2.87;;;2.63;;
934;SDS011;454;53.254;10.400;2024-03-22T18:06:18;6.35;;;2.65;;
934;SDS011;454;53.254;10.400;2024-03-22T18:08:45;3.33;;;2.53;;
934;SDS011;454;53.254;10.400;2024-03-22T18:11:12;13.43;;;3.17;;
934;SDS011;454;53.254;10.400;2024-03-22T18:13:38;5.13;;;2.33;;
934;SDS011;454;53.254;10.400;2024-03-22T18:16:05;1.67;;;1.40;;
934;SDS011;454;53.254;10.400;2024-03-22T18:18:31;3.65;;;1.55;;
934;SDS011;454;53.254;10.400;2024-03-22T18:20:58;3.90;;;2.35;;
934;SDS011;454;53.254;10.400;2024-03-22T18:23:24;2.60;;;2.50;;
934;SDS011;454;53.254;10.400;2024-03-22T18:25:55;5.10;;;2.25;;
934;SDS011;454;53.254;10.400;2024-03-22T18:28:21;3.28;;;2.60;;
934;SDS011;454;53.254;10.400;2024-03-22T18:30:47;2.28;;;2.20;;
934;SDS011;454;53.254;10.400;2024-03-22T18:33:13;4.73;;;2.70;;
934;SDS011;454;53.254;10.400;2024-03-22T18:35:41;6.38;;;2.72;;
934;SDS011;454;53.254;10.400;2024-03-22T18:38:07;6.82;;;2.70;;
934;SDS011;454;53.254;10.400;2024-03-22T18:40:34;3.13;;;2.15;;
934;SDS011;454;53.254;10.400;2024-03-22T18:43:01;7.40;;;2.83;;
934;SDS011;454;53.254;10.400;2024-03-22T18:45:28;6.63;;;3.30;;
934;SDS011;454;53.254;10.400;2024-03-22T18:47:54;3.77;;;3.47;;
934;SDS011;454;53.254;10.400;2024-03-22T18:50:21;4.07;;;3.70;;
934;SDS011;454;53.254;10.400;2024-03-22T18:52:46;5.90;;;2.70;;
934;SDS011;454;53.254;10.400;2024-03-22T18:55:13;5.85;;;2.95;;
934;SDS011;454;53.254;10.400;2024-03-22T18:57:39;7.70;;;3.27;;
934;SDS011;454;53.254;10.400;2024-03-22T19:00:08;5.45;;;2.80;;
934;SDS011;454;53.254;10.400;2024-03-22T19:02:34;3.55;;;2.70;;
934;SDS011;454;53.254;10.400;2024-03-22T19:05:04;4.80;;;2.55;;
934;SDS011;454;53.254;10.400;2024-03-22T19:07:30;5.93;;;3.38;;
934;SDS011;454;53.254;10.400;2024-03-22T19:09:57;3.45;;;3.25;;
934;SDS011;454;53.254;10.400;2024-03-22T19:12:23;4.37;;;2.37;;
934;SDS011;454;53.254;10.400;2024-03-22T19:14:50;3.17;;;1.95;;
934;SDS011;454;53.254;10.400;2024-03-22T19:17:17;4.03;;;3.10;;
934;SDS011;454;53.254;10.400;2024-03-22T19:19:44;5.97;;;1.75;;
934;SDS011;454;53.254;10.400;2024-03-22T19:22:09;4.13;;;2.43;;
934;SDS011;454;53.254;10.400;2024-03-22T19:24:36;8.95;;;1.95;;
934;SDS011;454;53.254;10.400;2024-03-22T19:27:02;2.30;;;1.60;;
934;SDS011;454;53.254;10.400;2024-03-22T19:29:30;6.10;;;2.70;;
934;SDS011;454;53.254;10.400;2024-03-22T19:31:55;12.03;;;6.13;;
934;SDS011;454;53.254;10.400;2024-03-22T19:34:24;4.45;;;3.38;;
934;SDS011;454;53.254;10.400;2024-03-22T19:36:50;2.70;;;2.22;;
934;SDS011;454;53.254;10.400;2024-03-22T19:39:16;2.85;;;2.60;;
934;SDS011;454;53.254;10.400;2024-03-22T19:41:42;6.07;;;2.40;;
934;SDS011;454;53.254;10.400;2024-03-22T19:44:09;10.60;;;3.72;;
934;SDS011;454;53.254;10.400;2024-03-22T19:46:35;1.70;;;1.60;;
934;SDS011;454;53.254;10.400;2024-03-22T19:49:01;4.97;;;2.25;;
934;SDS011;454;53.254;10.400;2024-03-22T19:51:28;2.73;;;1.90;;
934;SDS011;454;53.254;10.400;2024-03-22T19:53:55;2.90;;;2.28;;
934;SDS011;454;53.254;10.400;2024-03-22T19:56:21;5.50;;;1.83;;
934;SDS011;454;53.254;10.400;2024-03-22T19:58:48;5.28;;;1.75;;
934;SDS011;454;53.254;10.400;2024-03-22T20:01:14;6.53;;;2.87;;
934;SDS011;454;53.254;10.400;2024-03-22T20:03:42;2.53;;;2.33;;
934;SDS011;454;53.254;10.400;2024-03-22T20:06:08;5.20;;;2.80;;
934;SDS011;454;53.254;10.400;2024-03-22T20:08:36;7.93;;;2.30;;
934;SDS011;454;53.254;10.400;2024-03-22T20:11:02;4.15;;;2.70;;